Time;durP1;ratioP1;P1;durP2;ratioP2;P2;SDS_P1;SDS_P2;PMS_P1;PMS_P2;Temp;Humidity;BMP_temperature;BMP_pressure;BME280_temperature;BME280_humidity;BME280_pressure;Samples;Min_cycle;Max_cycle;Signal;HPM_P1;HPM_P2
2021/01/07 00:01:45;;;;;;;;;;;3.70;92.60;;;;;;5015309;28;19913;-89
2021/01/07 00:04:11;;;;;;;;;;;3.70;92.60;;;;;;5000378;28;19921;-89
2021/01/07 00:06:36;;;;;;;;;;;3.60;92.60;;;;;;4995899;28;19918;-90
2021/01/07 00:09:02;;;;;;;;;;;3.70;92.60;;;;;;4993091;28;19936;-89
2021/01/07 00:11:27;;;;;;;;;;;3.60;92.60;;;;;;5015259;28;19909;-89
2021/01/07 00:13:53;;;;;;;;;;;3.70;92.60;;;;;;5015332;28;19913;-90
2021/01/07 00:16:19;;;;;;;;;;;3.60;92.60;;;;;;5014990;28;20012;-89
2021/01/07 00:18:45;;;;;;;;;;;3.60;92.60;;;;;;5005638;28;19914;-89
2021/01/07 00:21:11;;;;;;;;;;;3.60;92.60;;;;;;5015139;28;19910;-89
2021/01/07 00:23:37;;;;;;;;;;;3.60;92.60;;;;;;4998958;28;20384;-89
2021/01/07 00:26:02;;;;;;;;;;;3.60;92.60;;;;;;4998923;28;19921;-89
2021/01/07 00:28:28;;;;;;;;;;;3.60;92.60;;;;;;4998695;28;19924;-89
2021/01/07 00:30:53;;;;;;;;;;;3.60;92.60;;;;;;4998128;28;19917;-89
2021/01/07 00:33:19;;;;;;;;;;;3.60;92.60;;;;;;5016998;28;19910;-90
2021/01/07 00:35:46;;;;;;;;;;;3.60;92.60;;;;;;5017652;28;19909;-89
2021/01/07 00:38:12;;;;;;;;;;;3.50;92.60;;;;;;5015015;28;19983;-88
2021/01/07 00:40:37;;;;;;;;;;;3.50;92.60;;;;;;5015228;28;19909;-88
2021/01/07 00:43:04;;;;;;;;;;;3.50;92.60;;;;;;4997680;28;19913;-88
2021/01/07 00:45:30;;;;;;;;;;;3.50;92.60;;;;;;5017139;28;19928;-88
2021/01/07 00:47:56;;;;;;;;;;;3.50;92.60;;;;;;5018618;28;19932;-88
2021/01/07 00:50:21;;;;;;;;;;;3.50;92.70;;;;;;5016087;28;19922;-88
2021/01/07 00:52:47;;;;;;;;;;;3.50;92.70;;;;;;5014739;28;19924;-87
2021/01/07 00:55:15;;;;;;;;;;;3.40;92.60;;;;;;4998119;28;19949;-88
2021/01/07 00:57:40;;;;;;;;;;;3.40;92.60;;;;;;5014513;28;20353;-88
2021/01/07 01:00:07;;;;;;;;;;;3.40;92.70;;;;;;5014297;28;19921;-88
2021/01/07 01:02:32;;;;;;;;;;;3.40;92.70;;;;;;5015517;28;19919;-88
2021/01/07 01:04:58;;;;;;;;;;;3.50;92.70;;;;;;4997732;28;19992;-88
2021/01/07 01:07:23;;;;;;;;;;;3.40;92.70;;;;;;4997828;28;19957;-87
2021/01/07 01:09:49;;;;;;;;;;;3.40;92.70;;;;;;5010833;28;19910;-88
2021/01/07 01:12:14;;;;;;;;;;;3.40;92.70;;;;;;4983846;28;19914;-88
2021/01/07 01:14:40;;;;;;;;;;;3.40;92.70;;;;;;5000009;28;19914;-88
2021/01/07 01:17:05;;;;;;;;;;;3.40;92.80;;;;;;5007437;28;19918;-88
2021/01/07 01:19:32;;;;;;;;;;;3.30;92.80;;;;;;5018041;28;19918;-88
2021/01/07 01:21:58;;;;;;;;;;;3.40;92.80;;;;;;4997208;28;19913;-88
2021/01/07 01:24:23;;;;;;;;;;;3.40;92.80;;;;;;5002181;28;20277;-88
2021/01/07 01:26:52;;;;;;;;;;;3.40;92.80;;;;;;4994071;28;19960;-87
2021/01/07 01:29:18;;;;;;;;;;;3.30;92.70;;;;;;5003623;28;19918;-87
2021/01/07 01:31:43;;;;;;;;;;;3.30;92.80;;;;;;5009877;28;19910;-88
2021/01/07 01:34:09;;;;;;;;;;;3.30;92.80;;;;;;4997209;28;19913;-88
2021/01/07 01:36:35;;;;;;;;;;;3.30;92.90;;;;;;4997232;28;20333;-87
2021/01/07 01:39:00;;;;;;;;;;;3.30;92.90;;;;;;4997437;28;19963;-87
2021/01/07 01:41:26;;;;;;;;;;;3.30;92.90;;;;;;4999746;28;19917;-88
2021/01/07 01:43:51;;;;;;;;;;;3.30;92.90;;;;;;5013686;28;19918;-87
2021/01/07 01:46:17;;;;;;;;;;;3.30;93.00;;;;;;5013600;28;19968;-88
2021/01/07 01:48:43;;;;;;;;;;;3.30;93.00;;;;;;4991875;28;19956;-88
2021/01/07 01:51:08;;;;;;;;;;;3.30;93.00;;;;;;4993657;28;20393;-88
2021/01/07 01:53:35;;;;;;;;;;;3.30;93.00;;;;;;4977453;28;19972;-88
2021/01/07 01:56:02;;;;;;;;;;;3.30;93.00;;;;;;4992634;28;19909;-87
2021/01/07 01:58:29;;;;;;;;;;;3.30;93.10;;;;;;4975879;28;20012;-88
2021/01/07 02:00:54;;;;;;;;;;;3.30;93.10;;;;;;4993689;28;20292;-88
2021/01/07 02:03:19;;;;;;;;;;;3.30;93.10;;;;;;4977360;28;19914;-88
2021/01/07 02:05:45;;;;;;;;;;;3.40;93.10;;;;;;4979738;28;19909;-88
2021/01/07 02:08:13;;;;;;;;;;;3.40;93.10;;;;;;4993407;28;19914;-88
2021/01/07 02:10:39;;;;;;;;;;;3.30;93.10;;;;;;4979823;28;19910;-88
2021/01/07 02:13:06;;;;;;;;;;;3.40;93.20;;;;;;4993667;28;19917;-87
2021/01/07 02:15:38;;;;;;;;;;;3.40;93.10;;;;;;4993087;28;19909;-88
2021/01/07 02:18:04;;;;;;;;;;;3.40;93.20;;;;;;4993329;28;19909;-88
2021/01/07 02:23:32;;;;;;;;;;;3.40;93.20;;;;;;4998043;28;19933;-88
2021/01/07 02:25:58;;;;;;;;;;;3.40;93.20;;;;;;4978937;28;20281;-87
2021/01/07 02:28:23;;;;;;;;;;;3.40;93.20;;;;;;4977108;28;19949;-88
2021/01/07 02:30:49;;;;;;;;;;;3.40;93.20;;;;;;4987369;28;19956;-88
2021/01/07 02:33:15;;;;;;;;;;;3.40;93.20;;;;;;4973794;28;19958;-88
2021/01/07 02:35:40;;;;;;;;;;;3.40;93.20;;;;;;4980754;28;19920;-88
2021/01/07 02:47:17;;;;;;;;;;;3.40;93.20;;;;;;4940072;29;19930;-85
2021/01/07 02:49:59;;;;;;;;;;;3.40;93.20;;;;;;4993617;28;19909;-85
2021/01/07 02:52:25;;;;;;;;;;;3.40;93.20;;;;;;5013487;28;19949;-85
2021/01/07 02:57:53;;;;;;;;;;;3.40;93.50;;;;;;5030795;28;19920;-88
2021/01/07 03:00:22;;;;;;;;;;;3.40;93.30;;;;;;5031194;28;19913;-89
2021/01/07 03:02:48;;;;;;;;;;;3.40;93.30;;;;;;4996740;28;19917;-88
2021/01/07 03:05:13;;;;;;;;;;;3.40;93.30;;;;;;5012126;28;19996;-89
2021/01/07 03:07:48;;;;;;;;;;;3.40;93.30;;;;;;5025580;28;19948;-88
2021/01/07 03:10:17;;;;;;;;;;;3.40;93.30;;;;;;4988867;28;19918;-88
2021/01/07 03:13:06;;;;;;;;;;;3.40;93.30;;;;;;5015790;28;19945;-88
2021/01/07 03:15:31;;;;;;;;;;;3.40;93.30;;;;;;5002357;28;19960;-88
2021/01/07 03:18:00;;;;;;;;;;;3.40;93.30;;;;;;5013607;28;19914;-87
2021/01/07 03:20:26;;;;;;;;;;;3.40;93.30;;;;;;5020512;28;19913;-88
2021/01/07 03:22:51;;;;;;;;;;;3.40;93.30;;;;;;5010056;28;20000;-88
2021/01/07 03:25:17;;;;;;;;;;;3.40;93.40;;;;;;4996460;28;19914;-88
2021/01/07 03:27:46;;;;;;;;;;;3.40;93.30;;;;;;5019512;28;19955;-88
2021/01/07 03:30:12;;;;;;;;;;;3.40;93.40;;;;;;5040227;28;20011;-88
2021/01/07 03:32:43;;;;;;;;;;;3.40;93.40;;;;;;5011199;28;19948;-88
2021/01/07 03:35:10;;;;;;;;;;;3.40;93.40;;;;;;5000282;28;19924;-89
2021/01/07 03:37:43;;;;;;;;;;;3.40;93.40;;;;;;5019654;28;19935;-88
2021/01/07 03:40:09;;;;;;;;;;;3.40;93.40;;;;;;5019452;28;20051;-87
2021/01/07 03:42:35;;;;;;;;;;;3.40;93.40;;;;;;5026677;28;19952;-87
2021/01/07 03:45:00;;;;;;;;;;;3.40;93.40;;;;;;5017574;28;19967;-87
2021/01/07 03:47:26;;;;;;;;;;;3.40;93.40;;;;;;5005389;28;19913;-88
2021/01/07 03:49:52;;;;;;;;;;;3.40;93.40;;;;;;5016482;28;19910;-88
2021/01/07 03:52:17;;;;;;;;;;;3.50;93.50;;;;;;5016648;28;19916;-86
2021/01/07 03:54:43;;;;;;;;;;;3.40;93.40;;;;;;5016719;28;19952;-88
2021/01/07 03:57:09;;;;;;;;;;;3.40;93.40;;;;;;4986413;28;19920;-89
2021/01/07 03:59:34;;;;;;;;;;;3.40;93.40;;;;;;5000653;28;19933;-88
2021/01/07 04:02:00;;;;;;;;;;;3.40;93.40;;;;;;4986599;28;19917;-87
2021/01/07 04:04:26;;;;;;;;;;;3.40;93.40;;;;;;4996971;28;19914;-88
2021/01/07 04:06:52;;;;;;;;;;;3.40;93.40;;;;;;4980790;28;19914;-87
2021/01/07 04:09:18;;;;;;;;;;;3.40;93.40;;;;;;5000278;28;19957;-88
2021/01/07 04:11:43;;;;;;;;;;;3.40;93.50;;;;;;5016884;28;20249;-87
2021/01/07 04:17:30;;;;;;;;;;;3.40;93.50;;;;;;5011635;28;19944;-87
2021/01/07 04:20:04;;;;;;;;;;;3.40;93.40;;;;;;5026168;28;19917;-88
2021/01/07 04:22:46;;;;;;;;;;;3.40;93.50;;;;;;5020330;28;19909;-87
2021/01/07 04:25:14;;;;;;;;;;;3.40;93.50;;;;;;5000069;28;19917;-87
2021/01/07 04:27:40;;;;;;;;;;;3.40;93.40;;;;;;5002425;28;19917;-88
2021/01/07 04:30:06;;;;;;;;;;;3.40;93.40;;;;;;5008169;28;19910;-88
2021/01/07 04:32:35;;;;;;;;;;;3.30;93.50;;;;;;5010410;28;20021;-88
2021/01/07 04:35:04;;;;;;;;;;;3.30;93.50;;;;;;5015757;28;19917;-88
2021/01/07 04:37:33;;;;;;;;;;;3.40;93.50;;;;;;5015565;28;19909;-89
2021/01/07 04:40:01;;;;;;;;;;;3.30;93.50;;;;;;5015305;28;19913;-88
2021/01/07 04:42:30;;;;;;;;;;;3.40;93.50;;;;;;5015246;28;20372;-89
2021/01/07 04:44:59;;;;;;;;;;;3.30;93.50;;;;;;5014695;28;19909;-87
2021/01/07 04:47:35;;;;;;;;;;;3.30;93.50;;;;;;5015396;28;19909;-89
2021/01/07 04:50:12;;;;;;;;;;;3.30;93.60;;;;;;5015901;28;19917;-89
2021/01/07 04:52:41;;;;;;;;;;;3.30;93.60;;;;;;5012492;28;19921;-88
2021/01/07 04:55:16;;;;;;;;;;;3.30;93.60;;;;;;5034091;28;19909;-88
2021/01/07 04:57:42;;;;;;;;;;;3.30;93.60;;;;;;5028162;28;20288;-87
2021/01/07 05:00:10;;;;;;;;;;;3.30;93.60;;;;;;5016164;28;19928;-87
2021/01/07 05:02:45;;;;;;;;;;;3.30;93.60;;;;;;5005601;28;20004;-88
2021/01/07 05:05:20;;;;;;;;;;;3.30;93.60;;;;;;5012413;28;19916;-87
2021/01/07 05:07:48;;;;;;;;;;;3.30;93.60;;;;;;4999339;28;19924;-87
2021/01/07 05:10:14;;;;;;;;;;;3.30;93.60;;;;;;5015152;28;19913;-87
2021/01/07 05:12:40;;;;;;;;;;;3.40;93.70;;;;;;5014929;28;20476;-88
2021/01/07 05:15:20;;;;;;;;;;;3.30;93.60;;;;;;4998496;28;20056;-88
2021/01/07 05:17:46;;;;;;;;;;;3.40;93.70;;;;;;4999464;28;19999;-88
2021/01/07 05:20:17;;;;;;;;;;;3.40;93.70;;;;;;5000643;28;19989;-86
2021/01/07 05:22:53;;;;;;;;;;;3.30;93.90;;;;;;5014590;28;19909;-88
2021/01/07 05:25:23;;;;;;;;;;;3.30;93.70;;;;;;4998884;28;19918;-88
2021/01/07 05:27:51;;;;;;;;;;;3.30;93.80;;;;;;5000609;28;19965;-89
2021/01/07 05:30:16;;;;;;;;;;;3.30;93.80;;;;;;5004859;28;20078;-89
2021/01/07 05:32:43;;;;;;;;;;;3.30;93.80;;;;;;4991656;28;20391;-89
2021/01/07 05:35:09;;;;;;;;;;;3.30;93.80;;;;;;5014565;28;20451;-88
2021/01/07 05:37:42;;;;;;;;;;;3.30;93.80;;;;;;5014396;28;19957;-89
2021/01/07 05:40:11;;;;;;;;;;;3.30;93.80;;;;;;5017535;28;19920;-89
2021/01/07 05:42:47;;;;;;;;;;;3.30;93.80;;;;;;4998039;28;20426;-89
2021/01/07 05:45:17;;;;;;;;;;;3.30;93.90;;;;;;4981789;28;20409;-88
2021/01/07 05:47:51;;;;;;;;;;;3.30;93.90;;;;;;5007363;28;19909;-88
2021/01/07 05:50:18;;;;;;;;;;;3.30;93.90;;;;;;4975118;28;19989;-88
2021/01/07 05:52:44;;;;;;;;;;;3.30;93.90;;;;;;4999025;28;19914;-88
2021/01/07 05:55:47;;;;;;;;;;;3.30;93.90;;;;;;4995585;28;19910;-88
2021/01/07 05:58:18;;;;;;;;;;;3.30;93.90;;;;;;5007957;28;19913;-88
2021/01/07 06:00:55;;;;;;;;;;;3.40;93.90;;;;;;5002347;28;19983;-88
2021/01/07 06:03:41;;;;;;;;;;;;;;;;;;;;;
2021/01/07 06:06:12;;;;;;;;;;;3.40;93.90;;;;;;4995267;28;19916;-88
2021/01/07 06:08:47;;;;;;;;;;;3.40;93.90;;;;;;4954737;28;19911;-88
2021/01/07 06:11:14;;;;;;;;;;;3.40;93.90;;;;;;4955567;28;19911;-88
2021/01/07 06:13:51;;;;;;;;;;;3.40;93.90;;;;;;4955300;28;19910;-89
2021/01/07 06:16:20;;;;;;;;;;;3.40;93.90;;;;;;4973890;28;19910;-89
2021/01/07 06:18:58;;;;;;;;;;;3.40;93.90;;;;;;4942556;28;20817;-88
2021/01/07 06:21:38;;;;;;;;;;;3.40;93.90;;;;;;4956101;28;19911;-87
2021/01/07 06:24:04;;;;;;;;;;;3.40;93.90;;;;;;4898753;29;20116;-87
2021/01/07 06:26:39;;;;;;;;;;;3.40;93.90;;;;;;4899700;29;19915;-87
2021/01/07 06:29:13;;;;;;;;;;;3.40;93.90;;;;;;4897337;29;20040;-87
2021/01/07 06:31:55;;;;;;;;;;;3.40;93.90;;;;;;4903258;29;20005;-88
2021/01/07 06:34:52;;;;;;;;;;;3.40;93.90;;;;;;4930112;29;19910;-89
2021/01/07 06:37:40;;;;;;;;;;;;;;;;;;;;;
2021/01/07 06:40:14;;;;;;;;;;;3.40;94.00;;;;;;4941288;29;19914;-88
2021/01/07 06:42:42;;;;;;;;;;;3.40;94.00;;;;;;4931080;29;19923;-88
2021/01/07 06:45:15;;;;;;;;;;;3.50;94.00;;;;;;4938304;29;19915;-89
2021/01/07 06:47:50;;;;;;;;;;;3.40;94.00;;;;;;4954029;28;20297;-88
2021/01/07 06:50:16;;;;;;;;;;;3.40;94.00;;;;;;4941073;29;19914;-87
2021/01/07 06:52:43;;;;;;;;;;;3.40;94.00;;;;;;4938944;29;19963;-87
2021/01/07 06:55:11;;;;;;;;;;;3.40;94.00;;;;;;4979747;28;20008;-88
2021/01/07 06:57:43;;;;;;;;;;;3.50;94.00;;;;;;4997069;28;19909;-87
2021/01/07 07:00:13;;;;;;;;;;;3.50;94.00;;;;;;4978754;28;19918;-87
2021/01/07 07:02:41;;;;;;;;;;;3.50;94.00;;;;;;4982563;28;19909;-86
2021/01/07 07:05:13;;;;;;;;;;;3.50;94.00;;;;;;4993926;28;19949;-88
2021/01/07 07:07:49;;;;;;;;;;;;;;;;;;;;;
2021/01/07 07:10:24;;;;;;;;;;;3.50;94.00;;;;;;4997745;28;19997;-90
2021/01/07 07:12:51;;;;;;;;;;;3.50;94.10;;;;;;4994784;28;19914;-89
2021/01/07 07:18:31;;;;;;;;;;;3.40;94.10;;;;;;4984775;28;19980;-90
2021/01/07 07:20:57;;;;;;;;;;;3.40;94.10;;;;;;4984524;28;20317;-89
2021/01/07 07:23:23;;;;;;;;;;;3.40;94.10;;;;;;4994679;28;19925;-90
2021/01/07 07:25:52;;;;;;;;;;;3.50;94.10;;;;;;4987636;28;20004;-90
2021/01/07 07:28:21;;;;;;;;;;;3.50;94.10;;;;;;4976126;28;19914;-87
2021/01/07 07:30:47;;;;;;;;;;;3.50;94.10;;;;;;4957764;28;19922;-90
2021/01/07 07:33:31;;;;;;;;;;;3.50;94.10;;;;;;4958737;28;19942;-88
2021/01/07 07:36:00;;;;;;;;;;;3.50;94.10;;;;;;4958458;28;19911;-89
2021/01/07 07:38:43;;;;;;;;;;;3.50;94.20;;;;;;4974335;28;19918;-89
2021/01/07 07:41:12;;;;;;;;;;;3.50;94.20;;;;;;4942616;28;19914;-89
2021/01/07 07:43:39;;;;;;;;;;;3.50;94.20;;;;;;4977998;28;19921;-89
2021/01/07 07:46:05;;;;;;;;;;;3.50;94.20;;;;;;4977258;28;19965;-89
2021/01/07 07:48:32;;;;;;;;;;;3.50;94.20;;;;;;4992109;28;19952;-88
2021/01/07 07:51:08;;;;;;;;;;;3.50;94.20;;;;;;5000380;28;19914;-87
2021/01/07 07:53:37;;;;;;;;;;;3.50;94.30;;;;;;4995670;28;19914;-87
2021/01/07 07:56:03;;;;;;;;;;;3.50;94.20;;;;;;4981492;28;19917;-87
2021/01/07 07:58:29;;;;;;;;;;;3.50;94.30;;;;;;4980675;28;20277;-87
2021/01/07 08:00:58;;;;;;;;;;;3.50;94.30;;;;;;4982194;28;19920;-87
2021/01/07 08:03:23;;;;;;;;;;;3.50;94.30;;;;;;5017936;28;19914;-87
2021/01/07 08:05:49;;;;;;;;;;;3.50;94.30;;;;;;5003350;28;19916;-87
2021/01/07 08:08:22;;;;;;;;;;;3.60;94.30;;;;;;5017328;28;19909;-88
2021/01/07 08:10:48;;;;;;;;;;;3.50;94.30;;;;;;5017820;28;19921;-88
2021/01/07 08:13:14;;;;;;;;;;;3.60;94.30;;;;;;5017360;28;20545;-89
2021/01/07 08:15:45;;;;;;;;;;;3.50;94.30;;;;;;5016800;28;19921;-87
2021/01/07 08:18:15;;;;;;;;;;;3.60;94.30;;;;;;5014341;28;19910;-87
2021/01/07 08:20:40;;;;;;;;;;;3.60;94.30;;;;;;5016688;28;20353;-88
2021/01/07 08:23:12;;;;;;;;;;;3.60;94.30;;;;;;5017075;28;19910;-87
2021/01/07 08:25:38;;;;;;;;;;;3.60;94.30;;;;;;5016737;28;19935;-87
2021/01/07 08:28:10;;;;;;;;;;;3.60;94.30;;;;;;5013440;28;19921;-88
2021/01/07 08:30:38;;;;;;;;;;;3.60;94.30;;;;;;5006829;28;19910;-88
2021/01/07 08:33:04;;;;;;;;;;;3.60;94.30;;;;;;5016543;28;19914;-88
2021/01/07 08:35:30;;;;;;;;;;;3.60;94.30;;;;;;5002783;28;20376;-90
2021/01/07 08:37:56;;;;;;;;;;;3.60;94.30;;;;;;5015079;28;19909;-90
2021/01/07 08:40:21;;;;;;;;;;;3.70;94.30;;;;;;4998481;23;19929;-88
2021/01/07 08:42:47;;;;;;;;;;;3.70;94.40;;;;;;5014851;28;19917;-88
2021/01/07 08:45:13;;;;;;;;;;;3.60;94.40;;;;;;5014129;28;19944;-87
2021/01/07 08:47:38;;;;;;;;;;;3.70;94.40;;;;;;5010457;28;19910;-87
2021/01/07 08:50:08;;;;;;;;;;;3.70;94.40;;;;;;5005188;28;20391;-85
2021/01/07 08:52:59;;;;;;;;;;;3.70;94.40;;;;;;5011891;28;19921;-87
2021/01/07 08:55:43;;;;;;;;;;;3.70;94.40;;;;;;5010341;28;19914;-88
2021/01/07 08:58:09;;;;;;;;;;;3.70;94.50;;;;;;5014885;28;19914;-87
2021/01/07 09:00:34;;;;;;;;;;;3.70;94.50;;;;;;5000050;28;19928;-88
2021/01/07 09:03:01;;;;;;;;;;;3.70;94.50;;;;;;5013046;28;19944;-88
2021/01/07 09:05:29;;;;;;;;;;;3.80;94.50;;;;;;5005502;28;19925;-88
2021/01/07 09:08:10;;;;;;;;;;;3.80;94.80;;;;;;5009684;28;20422;-86
2021/01/07 09:10:36;;;;;;;;;;;3.80;94.50;;;;;;5014522;28;19945;-86
2021/01/07 09:13:18;;;;;;;;;;;3.80;94.60;;;;;;5014777;28;19913;-87
2021/01/07 09:15:44;;;;;;;;;;;3.80;94.50;;;;;;5013744;28;19922;-86
2021/01/07 09:18:19;;;;;;;;;;;3.80;94.50;;;;;;5005030;28;19914;-86
2021/01/07 09:20:45;;;;;;;;;;;3.90;94.50;;;;;;5006484;28;20170;-87
2021/01/07 09:23:14;;;;;;;;;;;3.90;94.50;;;;;;5011622;28;20016;-87
2021/01/07 09:25:40;;;;;;;;;;;3.90;94.50;;;;;;4996852;28;20349;-88
2021/01/07 09:28:05;;;;;;;;;;;3.90;94.60;;;;;;5006285;28;19914;-87
2021/01/07 09:30:31;;;;;;;;;;;3.90;94.50;;;;;;4995143;28;19924;-87
2021/01/07 09:32:57;;;;;;;;;;;3.90;94.50;;;;;;5012823;28;19949;-88
2021/01/07 09:35:26;;;;;;;;;;;3.90;94.50;;;;;;5009409;28;19914;-88
2021/01/07 09:37:52;;;;;;;;;;;3.90;94.50;;;;;;5006262;28;20332;-88
2021/01/07 09:40:18;;;;;;;;;;;3.90;94.50;;;;;;5006796;28;19972;-87
2021/01/07 09:42:44;;;;;;;;;;;4.00;94.50;;;;;;5013379;28;19910;-87
2021/01/07 09:45:10;;;;;;;;;;;3.90;94.50;;;;;;4993722;28;20340;-88
2021/01/07 09:47:39;;;;;;;;;;;4.00;94.50;;;;;;4995042;28;19918;-89
2021/01/07 09:50:12;;;;;;;;;;;4.00;94.50;;;;;;5011419;28;19921;-88
2021/01/07 09:52:41;;;;;;;;;;;4.00;94.50;;;;;;5010311;28;19933;-88
2021/01/07 09:55:07;;;;;;;;;;;4.00;94.50;;;;;;5003368;28;19918;-88
2021/01/07 09:57:33;;;;;;;;;;;4.00;94.50;;;;;;4999544;28;20254;-88
2021/01/07 10:00:03;;;;;;;;;;;4.00;94.50;;;;;;5019803;28;19920;-86
2021/01/07 10:02:28;;;;;;;;;;;4.00;94.60;;;;;;5013362;28;19968;-87
2021/01/07 10:04:54;;;;;;;;;;;4.10;94.60;;;;;;5026808;28;19914;-87
2021/01/07 10:07:20;;;;;;;;;;;4.10;94.50;;;;;;4994401;28;19918;-89
2021/01/07 10:09:46;;;;;;;;;;;4.10;94.60;;;;;;4996105;28;19991;-89
2021/01/07 10:12:14;;;;;;;;;;;4.10;94.60;;;;;;5011157;28;20482;-89
2021/01/07 10:14:40;;;;;;;;;;;4.10;94.60;;;;;;4984209;28;19944;-90
2021/01/07 10:17:06;;;;;;;;;;;4.10;94.60;;;;;;5007523;28;19913;-90
2021/01/07 10:19:39;;;;;;;;;;;4.10;94.60;;;;;;4996967;28;19918;-90
2021/01/07 10:22:14;;;;;;;;;;;4.10;94.60;;;;;;5002054;28;20388;-90
2021/01/07 10:24:44;;;;;;;;;;;4.10;94.60;;;;;;5005859;28;19910;-89
2021/01/07 10:27:11;;;;;;;;;;;4.10;94.70;;;;;;5003807;28;19953;-90
2021/01/07 10:29:38;;;;;;;;;;;4.20;94.70;;;;;;5013644;28;19941;-90
2021/01/07 10:32:03;;;;;;;;;;;4.20;94.70;;;;;;5008943;28;19914;-89
2021/01/07 10:34:30;;;;;;;;;;;4.20;94.70;;;;;;5013159;28;19932;-89
2021/01/07 10:36:56;;;;;;;;;;;4.20;94.70;;;;;;5007157;28;19917;-89
2021/01/07 10:39:26;;;;;;;;;;;4.20;94.70;;;;;;5006927;28;19980;-89
2021/01/07 10:41:54;;;;;;;;;;;4.20;94.70;;;;;;5007939;28;19914;-90
2021/01/07 10:44:22;;;;;;;;;;;4.30;94.80;;;;;;4999017;28;19914;-88
2021/01/07 10:46:51;;;;;;;;;;;4.30;94.80;;;;;;5005976;28;19917;-87
2021/01/07 10:49:18;;;;;;;;;;;4.30;94.80;;;;;;5007334;28;19910;-88
2021/01/07 10:51:52;;;;;;;;;;;4.40;94.80;;;;;;5016714;28;19914;-88
2021/01/07 10:54:31;;;;;;;;;;;4.40;94.80;;;;;;5013323;28;19916;-88
2021/01/07 10:57:16;;;;;;;;;;;4.40;94.80;;;;;;5009984;28;19967;-88
2021/01/07 10:59:46;;;;;;;;;;;4.40;94.80;;;;;;5000822;28;19943;-88
2021/01/07 11:02:11;;;;;;;;;;;4.50;94.80;;;;;;4993665;28;19929;-88
2021/01/07 11:04:37;;;;;;;;;;;4.50;94.80;;;;;;5003445;28;19910;-88
2021/01/07 11:07:11;;;;;;;;;;;4.50;94.70;;;;;;5009150;28;19996;-88
2021/01/07 11:09:39;;;;;;;;;;;4.50;94.70;;;;;;4994566;28;19917;-88
2021/01/07 11:12:08;;;;;;;;;;;4.50;94.70;;;;;;5008204;28;19917;-88
2021/01/07 11:14:42;;;;;;;;;;;4.50;94.70;;;;;;4995832;28;19910;-89
2021/01/07 11:17:12;;;;;;;;;;;4.50;94.70;;;;;;5010517;28;19952;-88
2021/01/07 11:19:38;;;;;;;;;;;4.60;94.70;;;;;;5012152;28;19917;-89
2021/01/07 11:22:14;;;;;;;;;;;4.60;94.70;;;;;;5008761;28;19913;-89
2021/01/07 11:24:50;;;;;;;;;;;4.60;94.70;;;;;;5011493;28;19910;-88
2021/01/07 11:27:16;;;;;;;;;;;4.60;94.80;;;;;;5005430;28;20420;-89
2021/01/07 11:29:42;;;;;;;;;;;4.60;94.70;;;;;;5000084;28;19964;-89
2021/01/07 11:32:08;;;;;;;;;;;4.70;94.80;;;;;;5017486;28;19920;-89
2021/01/07 11:34:33;;;;;;;;;;;4.70;94.70;;;;;;5016845;28;20352;-89
2021/01/07 11:37:17;;;;;;;;;;;4.60;94.70;;;;;;5004226;28;20414;-90
2021/01/07 11:40:24;;;;;;;;;;;4.60;94.70;;;;;;5016827;28;19929;-86
2021/01/07 11:42:52;;;;;;;;;;;4.60;94.80;;;;;;4923716;29;19915;-88
2021/01/07 11:45:26;;;;;;;;;;;4.60;94.70;;;;;;4942102;29;19911;-87
2021/01/07 11:48:30;;;;;;;;;;;4.70;94.70;;;;;;4981361;28;19910;-89
2021/01/07 11:51:16;;;;;;;;;;;4.70;94.70;;;;;;4904827;29;19926;-88
2021/01/07 11:53:43;;;;;;;;;;;4.70;94.70;;;;;;5010228;28;20005;-88
2021/01/07 11:56:57;;;;;;;;;;;4.70;94.70;;;;;;5007925;28;19957;-88
2021/01/07 12:02:38;;;;;;;;;;;4.70;94.70;;;;;;4905599;29;19918;-87
2021/01/07 12:05:08;;;;;;;;;;;4.70;94.80;;;;;;4924684;29;20382;-87
2021/01/07 12:07:46;;;;;;;;;;;4.70;94.80;;;;;;5005706;28;20007;-87
2021/01/07 12:10:17;;;;;;;;;;;4.70;94.80;;;;;;5018852;28;19913;-87
2021/01/07 12:13:28;;;;;;;;;;;;;;;;;;;;;
2021/01/07 12:16:29;;;;;;;;;;;4.70;94.90;;;;;;5016077;28;19909;-87
2021/01/07 12:19:10;;;;;;;;;;;4.80;94.80;;;;;;4965005;28;19949;-88
2021/01/07 12:21:36;;;;;;;;;;;4.80;94.90;;;;;;4999694;28;19913;-88
2021/01/07 12:24:03;;;;;;;;;;;4.80;94.70;;;;;;5000046;28;20024;-87
2021/01/07 12:26:28;;;;;;;;;;;4.90;94.80;;;;;;5014825;28;19914;-88
2021/01/07 12:28:54;;;;;;;;;;;4.90;94.80;;;;;;5022765;28;19916;-89
2021/01/07 12:31:29;;;;;;;;;;;4.90;94.90;;;;;;5002012;28;19910;-89
2021/01/07 12:34:02;;;;;;;;;;;4.90;94.90;;;;;;5015762;28;19909;-89
2021/01/07 12:36:43;;;;;;;;;;;4.90;94.90;;;;;;5016051;28;19910;-88
2021/01/07 12:39:24;;;;;;;;;;;4.90;95.00;;;;;;5014462;28;19949;-90
2021/01/07 12:41:52;;;;;;;;;;;4.90;94.90;;;;;;5015693;28;19921;-88
2021/01/07 12:44:25;;;;;;;;;;;4.90;95.00;;;;;;5015570;28;19914;-89
2021/01/07 12:46:52;;;;;;;;;;;4.90;95.00;;;;;;5011115;28;20004;-85
2021/01/07 12:49:21;;;;;;;;;;;4.90;95.00;;;;;;5005860;28;19920;-89
2021/01/07 12:51:47;;;;;;;;;;;4.90;95.00;;;;;;5015191;28;20368;-89
2021/01/07 12:54:16;;;;;;;;;;;5.00;95.10;;;;;;5014464;28;19968;-89
2021/01/07 12:57:05;;;;;;;;;;;5.00;95.10;;;;;;5008773;28;19924;-89
2021/01/07 12:59:35;;;;;;;;;;;5.00;95.10;;;;;;5002051;28;19959;-89
2021/01/07 13:02:22;;;;;;;;;;;5.00;95.10;;;;;;5006383;28;19921;-89
2021/01/07 13:05:03;;;;;;;;;;;5.00;95.00;;;;;;5010050;28;19909;-89
2021/01/07 13:07:40;;;;;;;;;;;5.00;95.10;;;;;;5014068;28;19924;-89
2021/01/07 13:10:19;;;;;;;;;;;5.00;95.10;;;;;;5011959;28;20333;-89
2021/01/07 13:12:56;;;;;;;;;;;5.00;95.10;;;;;;5009275;28;19938;-89
2021/01/07 13:15:55;;;;;;;;;;;5.10;95.10;;;;;;5016945;28;19973;-87
2021/01/07 13:18:21;;;;;;;;;;;5.10;95.10;;;;;;5006255;28;19917;-89
2021/01/07 13:20:49;;;;;;;;;;;5.10;95.10;;;;;;5018403;28;20272;-87
2021/01/07 13:23:41;;;;;;;;;;;5.10;95.10;;;;;;5009700;28;19914;-89
2021/01/07 13:26:13;;;;;;;;;;;5.10;95.10;;;;;;5012418;28;19910;-89
2021/01/07 13:28:40;;;;;;;;;;;5.10;95.10;;;;;;4997701;28;20352;-89
2021/01/07 13:31:18;;;;;;;;;;;5.10;95.10;;;;;;5014099;28;19910;-90
2021/01/07 13:33:48;;;;;;;;;;;5.10;95.20;;;;;;5011524;28;20001;-90
2021/01/07 13:36:19;;;;;;;;;;;5.10;95.10;;;;;;5008176;28;19921;-88
2021/01/07 13:38:45;;;;;;;;;;;5.10;95.10;;;;;;5007131;28;19917;-88
2021/01/07 13:41:16;;;;;;;;;;;5.10;95.20;;;;;;4994698;28;19922;-90
2021/01/07 13:43:58;;;;;;;;;;;5.10;95.20;;;;;;4994743;28;20429;-89
2021/01/07 13:46:43;;;;;;;;;;;5.10;95.20;;;;;;4991349;28;19917;-88
2021/01/07 13:49:13;;;;;;;;;;;5.10;95.20;;;;;;5014451;28;19922;-89
2021/01/07 13:51:44;;;;;;;;;;;5.10;95.20;;;;;;5003895;28;19909;-89
2021/01/07 13:54:11;;;;;;;;;;;5.10;95.20;;;;;;5013159;28;19914;-90
2021/01/07 13:56:36;;;;;;;;;;;5.10;95.20;;;;;;5012226;28;19917;-90
2021/01/07 13:59:02;;;;;;;;;;;5.10;95.20;;;;;;5011882;28;20052;-91
2021/01/07 14:01:28;;;;;;;;;;;5.20;95.20;;;;;;5009378;28;20373;-88
2021/01/07 14:03:55;;;;;;;;;;;5.10;95.20;;;;;;5013882;28;19917;-89
2021/01/07 14:06:25;;;;;;;;;;;5.20;95.20;;;;;;5003463;28;20008;-88
2021/01/07 14:09:11;;;;;;;;;;;5.10;95.20;;;;;;5007072;28;19916;-89
2021/01/07 14:11:42;;;;;;;;;;;5.10;95.30;;;;;;4994047;28;19990;-89
2021/01/07 14:14:11;;;;;;;;;;;5.10;95.30;;;;;;5008762;28;19913;-90
2021/01/07 14:16:37;;;;;;;;;;;5.10;95.40;;;;;;5013755;28;20004;-90
2021/01/07 14:19:02;;;;;;;;;;;5.10;95.60;;;;;;4997471;28;20000;-89
2021/01/07 14:21:32;;;;;;;;;;;5.10;95.40;;;;;;5014335;28;20055;-89
2021/01/07 14:23:59;;;;;;;;;;;5.20;95.50;;;;;;5012583;28;19909;-89
2021/01/07 14:26:25;;;;;;;;;;;5.20;95.40;;;;;;5011962;28;20428;-89
2021/01/07 14:28:51;;;;;;;;;;;5.20;95.50;;;;;;5013521;28;19914;-89
2021/01/07 14:31:19;;;;;;;;;;;5.20;95.40;;;;;;5012388;28;19909;-90
2021/01/07 14:33:51;;;;;;;;;;;5.20;95.40;;;;;;4994497;28;19917;-90
2021/01/07 14:36:17;;;;;;;;;;;5.20;95.40;;;;;;5009291;28;19948;-90
2021/01/07 14:38:44;;;;;;;;;;;5.20;95.40;;;;;;4997272;28;19917;-89
2021/01/07 14:41:10;;;;;;;;;;;5.20;95.40;;;;;;5013493;28;19921;-90
2021/01/07 14:43:36;;;;;;;;;;;5.20;95.40;;;;;;4994042;28;19967;-89
2021/01/07 14:46:05;;;;;;;;;;;5.20;95.50;;;;;;5005273;28;19914;-90
2021/01/07 14:48:34;;;;;;;;;;;5.20;95.50;;;;;;5000496;28;19909;-90
2021/01/07 14:51:03;;;;;;;;;;;5.20;95.50;;;;;;5014318;28;20386;-87
2021/01/07 14:53:32;;;;;;;;;;;5.20;95.50;;;;;;5013115;28;19913;-88
2021/01/07 14:56:06;;;;;;;;;;;5.20;95.50;;;;;;4999178;28;19967;-88
2021/01/07 14:58:55;;;;;;;;;;;5.20;95.40;;;;;;5017277;28;19916;-90
2021/01/07 15:01:24;;;;;;;;;;;5.20;95.30;;;;;;5003527;28;19921;-89
2021/01/07 15:03:58;;;;;;;;;;;5.20;95.20;;;;;;4995811;28;19917;-89
2021/01/07 15:06:24;;;;;;;;;;;5.20;95.20;;;;;;5018136;28;20353;-89
2021/01/07 15:09:33;;;;;;;;;;;5.20;95.30;;;;;;5028936;28;19948;-89
2021/01/07 15:12:15;;;;;;;;;;;5.20;95.30;;;;;;4990993;28;20480;-89
2021/01/07 15:14:51;;;;;;;;;;;5.10;95.30;;;;;;5015875;28;19914;-90
2021/01/07 15:17:41;;;;;;;;;;;5.20;95.40;;;;;;5010200;28;20436;-90